Terminal Aerodrome Forecast
Issued by NWS Charleston, WV

Home | Current Version | Previous Version | Text Only | Print | Product List | Glossary On
Versions: 1 2 3 4 5 6 7 8 9 10 11 12 13 14 15 16 17 18 19 20 21 22 23 24 25
000
FTUS41 KRLX 290500 CCA
TAFEKN
TAF COR
KEKN 290540Z 2906/3006 00000KT 2SM BR SKC
     FM290630 00000KT 1/4SM FG VV001
     FM291300 VRB03KT 4SM BR FEW002 FEW250
     FM291330 VRB03KT P6SM FEW200
     FM291900 VRB03KT P6SM FEW045=

USA.gov is the U.S. government's official web portal to all federal, state and local government web resources and services.